sensor_id;sensor_type;location;lat;lon;timestamp;P1;durP1;ratioP1;P2;durP2;ratioP2
2173;SDS011;1093;51.424;11.764;2023-07-29T00:00:54;2.10;;;1.90;;
2173;SDS011;1093;51.424;11.764;2023-07-29T00:03:22;3.10;;;1.80;;
2173;SDS011;1093;51.424;11.764;2023-07-29T00:05:49;4.13;;;2.10;;
2173;SDS011;1093;51.424;11.764;2023-07-29T00:08:19;2.10;;;1.90;;
2173;SDS011;1093;51.424;11.764;2023-07-29T00:10:49;2.13;;;1.83;;
2173;SDS011;1093;51.424;11.764;2023-07-29T00:13:18;2.40;;;2.20;;
2173;SDS011;1093;51.424;11.764;2023-07-29T00:15:53;2.07;;;1.87;;
2173;SDS011;1093;51.424;11.764;2023-07-29T00:18:24;1.70;;;1.60;;
2173;SDS011;1093;51.424;11.764;2023-07-29T00:20:53;1.90;;;1.80;;
2173;SDS011;1093;51.424;11.764;2023-07-29T00:23:21;2.50;;;2.30;;
2173;SDS011;1093;51.424;11.764;2023-07-29T00:25:49;2.87;;;2.23;;
2173;SDS011;1093;51.424;11.764;2023-07-29T00:28:19;2.77;;;2.10;;
2173;SDS011;1093;51.424;11.764;2023-07-29T00:30:46;2.07;;;1.90;;
2173;SDS011;1093;51.424;11.764;2023-07-29T00:33:16;2.43;;;2.23;;
2173;SDS011;1093;51.424;11.764;2023-07-29T00:35:44;2.63;;;2.30;;
2173;SDS011;1093;51.424;11.764;2023-07-29T00:38:12;1.90;;;1.80;;
2173;SDS011;1093;51.424;11.764;2023-07-29T00:40:40;2.70;;;2.10;;
2173;SDS011;1093;51.424;11.764;2023-07-29T00:43:09;2.30;;;2.03;;
2173;SDS011;1093;51.424;11.764;2023-07-29T00:45:40;2.57;;;2.27;;
2173;SDS011;1093;51.424;11.764;2023-07-29T00:48:17;2.40;;;2.20;;
2173;SDS011;1093;51.424;11.764;2023-07-29T00:50:45;2.47;;;2.27;;
2173;SDS011;1093;51.424;11.764;2023-07-29T00:53:14;2.60;;;2.20;;
2173;SDS011;1093;51.424;11.764;2023-07-29T00:55:42;2.37;;;2.03;;
2173;SDS011;1093;51.424;11.764;2023-07-29T00:58:10;3.90;;;2.17;;
2173;SDS011;1093;51.424;11.764;2023-07-29T01:00:39;2.40;;;2.20;;
2173;SDS011;1093;51.424;11.764;2023-07-29T01:03:09;2.27;;;2.10;;
2173;SDS011;1093;51.424;11.764;2023-07-29T01:05:40;2.23;;;2.03;;
2173;SDS011;1093;51.424;11.764;2023-07-29T01:08:25;3.87;;;2.40;;
2173;SDS011;1093;51.424;11.764;2023-07-29T01:11:04;2.67;;;2.20;;
2173;SDS011;1093;51.424;11.764;2023-07-29T01:13:46;3.53;;;2.20;;
2173;SDS011;1093;51.424;11.764;2023-07-29T01:16:19;2.27;;;2.07;;
2173;SDS011;1093;51.424;11.764;2023-07-29T01:18:56;2.23;;;2.13;;
2173;SDS011;1093;51.424;11.764;2023-07-29T01:21:34;2.70;;;2.30;;
2173;SDS011;1093;51.424;11.764;2023-07-29T01:24:04;3.30;;;2.20;;
2173;SDS011;1093;51.424;11.764;2023-07-29T01:26:32;2.30;;;2.10;;
2173;SDS011;1093;51.424;11.764;2023-07-29T01:29:00;2.50;;;2.10;;
2173;SDS011;1093;51.424;11.764;2023-07-29T01:31:37;2.30;;;2.10;;
2173;SDS011;1093;51.424;11.764;2023-07-29T01:34:10;2.40;;;2.20;;
2173;SDS011;1093;51.424;11.764;2023-07-29T01:36:44;4.40;;;3.37;;
2173;SDS011;1093;51.424;11.764;2023-07-29T01:39:15;2.73;;;2.53;;
2173;SDS011;1093;51.424;11.764;2023-07-29T01:41:43;3.17;;;2.80;;
2173;SDS011;1093;51.424;11.764;2023-07-29T01:44:11;2.60;;;2.40;;
2173;SDS011;1093;51.424;11.764;2023-07-29T01:46:41;4.90;;;2.60;;
2173;SDS011;1093;51.424;11.764;2023-07-29T01:49:10;3.07;;;2.30;;
2173;SDS011;1093;51.424;11.764;2023-07-29T01:51:39;3.00;;;2.80;;
2173;SDS011;1093;51.424;11.764;2023-07-29T01:54:08;2.67;;;2.47;;
2173;SDS011;1093;51.424;11.764;2023-07-29T01:56:36;2.40;;;2.20;;
2173;SDS011;1093;51.424;11.764;2023-07-29T01:59:03;3.47;;;2.50;;
2173;SDS011;1093;51.424;11.764;2023-07-29T02:01:31;2.47;;;2.27;;
2173;SDS011;1093;51.424;11.764;2023-07-29T02:03:59;2.60;;;2.40;;
2173;SDS011;1093;51.424;11.764;2023-07-29T02:06:27;2.80;;;2.50;;
2173;SDS011;1093;51.424;11.764;2023-07-29T02:08:55;4.40;;;2.03;;
2173;SDS011;1093;51.424;11.764;2023-07-29T02:11:26;2.40;;;2.17;;
2173;SDS011;1093;51.424;11.764;2023-07-29T02:13:55;2.37;;;2.17;;
2173;SDS011;1093;51.424;11.764;2023-07-29T02:16:23;3.70;;;2.10;;
2173;SDS011;1093;51.424;11.764;2023-07-29T02:18:50;2.50;;;2.30;;
2173;SDS011;1093;51.424;11.764;2023-07-29T02:21:23;2.27;;;2.07;;
2173;SDS011;1093;51.424;11.764;2023-07-29T02:23:52;2.87;;;2.60;;
2173;SDS011;1093;51.424;11.764;2023-07-29T02:26:19;2.50;;;2.30;;
2173;SDS011;1093;51.424;11.764;2023-07-29T02:28:50;2.80;;;2.60;;
2173;SDS011;1093;51.424;11.764;2023-07-29T02:31:24;3.20;;;2.90;;
2173;SDS011;1093;51.424;11.764;2023-07-29T02:33:53;2.60;;;2.37;;
2173;SDS011;1093;51.424;11.764;2023-07-29T02:36:23;3.30;;;2.30;;
2173;SDS011;1093;51.424;11.764;2023-07-29T02:38:50;2.20;;;2.00;;
2173;SDS011;1093;51.424;11.764;2023-07-29T02:41:18;2.23;;;1.87;;
2173;SDS011;1093;51.424;11.764;2023-07-29T02:43:48;2.93;;;2.63;;
2173;SDS011;1093;51.424;11.764;2023-07-29T02:46:17;3.53;;;2.77;;
2173;SDS011;1093;51.424;11.764;2023-07-29T02:48:47;2.80;;;2.53;;
2173;SDS011;1093;51.424;11.764;2023-07-29T02:51:14;2.97;;;2.47;;
2173;SDS011;1093;51.424;11.764;2023-07-29T02:53:42;3.07;;;2.80;;
2173;SDS011;1093;51.424;11.764;2023-07-29T02:56:09;3.60;;;3.30;;
2173;SDS011;1093;51.424;11.764;2023-07-29T02:58:38;5.50;;;2.70;;
2173;SDS011;1093;51.424;11.764;2023-07-29T03:01:07;6.33;;;3.50;;
2173;SDS011;1093;51.424;11.764;2023-07-29T03:03:38;3.00;;;2.70;;
2173;SDS011;1093;51.424;11.764;2023-07-29T03:06:09;4.90;;;2.50;;
2173;SDS011;1093;51.424;11.764;2023-07-29T03:08:44;2.70;;;2.37;;
2173;SDS011;1093;51.424;11.764;2023-07-29T03:11:13;3.03;;;2.73;;
2173;SDS011;1093;51.424;11.764;2023-07-29T03:13:41;3.10;;;2.80;;
2173;SDS011;1093;51.424;11.764;2023-07-29T03:16:09;4.07;;;3.10;;
2173;SDS011;1093;51.424;11.764;2023-07-29T03:18:38;3.43;;;3.17;;
2173;SDS011;1093;51.424;11.764;2023-07-29T03:21:09;3.10;;;2.90;;
2173;SDS011;1093;51.424;11.764;2023-07-29T03:23:45;4.73;;;3.43;;
2173;SDS011;1093;51.424;11.764;2023-07-29T03:26:12;5.27;;;3.17;;
2173;SDS011;1093;51.424;11.764;2023-07-29T03:28:40;2.83;;;2.63;;
2173;SDS011;1093;51.424;11.764;2023-07-29T03:31:08;3.87;;;2.90;;
2173;SDS011;1093;51.424;11.764;2023-07-29T03:33:37;3.37;;;3.07;;
2173;SDS011;1093;51.424;11.764;2023-07-29T03:36:08;2.90;;;2.70;;
2173;SDS011;1093;51.424;11.764;2023-07-29T03:38:36;3.43;;;3.13;;
2173;SDS011;1093;51.424;11.764;2023-07-29T03:41:05;2.77;;;2.50;;
2173;SDS011;1093;51.424;11.764;2023-07-29T03:43:33;3.30;;;3.00;;
2173;SDS011;1093;51.424;11.764;2023-07-29T03:46:00;3.30;;;2.40;;
2173;SDS011;1093;51.424;11.764;2023-07-29T03:48:27;2.90;;;2.63;;
2173;SDS011;1093;51.424;11.764;2023-07-29T03:50:54;3.60;;;3.30;;
2173;SDS011;1093;51.424;11.764;2023-07-29T03:53:23;3.20;;;3.00;;
2173;SDS011;1093;51.424;11.764;2023-07-29T03:55:51;2.63;;;2.43;;
2173;SDS011;1093;51.424;11.764;2023-07-29T03:58:21;3.00;;;2.77;;
2173;SDS011;1093;51.424;11.764;2023-07-29T04:00:50;3.17;;;2.97;;
2173;SDS011;1093;51.424;11.764;2023-07-29T04:03:19;3.90;;;3.30;;
2173;SDS011;1093;51.424;11.764;2023-07-29T04:05:46;3.80;;;3.30;;
2173;SDS011;1093;51.424;11.764;2023-07-29T04:08:15;2.90;;;2.70;;
2173;SDS011;1093;51.424;11.764;2023-07-29T04:10:45;2.67;;;2.47;;
2173;SDS011;1093;51.424;11.764;2023-07-29T04:13:12;3.47;;;3.17;;
2173;SDS011;1093;51.424;11.764;2023-07-29T04:15:39;6.00;;;3.10;;
2173;SDS011;1093;51.424;11.764;2023-07-29T04:18:06;3.30;;;3.00;;
2173;SDS011;1093;51.424;11.764;2023-07-29T04:20:36;3.03;;;2.80;;
2173;SDS011;1093;51.424;11.764;2023-07-29T04:23:03;3.37;;;3.07;;
2173;SDS011;1093;51.424;11.764;2023-07-29T04:25:31;3.37;;;3.07;;
2173;SDS011;1093;51.424;11.764;2023-07-29T04:28:00;3.30;;;2.93;;
2173;SDS011;1093;51.424;11.764;2023-07-29T04:30:33;3.50;;;2.73;;
2173;SDS011;1093;51.424;11.764;2023-07-29T04:33:00;3.40;;;2.90;;
2173;SDS011;1093;51.424;11.764;2023-07-29T04:35:27;3.50;;;3.20;;
2173;SDS011;1093;51.424;11.764;2023-07-29T04:37:55;3.80;;;3.43;;
2173;SDS011;1093;51.424;11.764;2023-07-29T04:40:21;4.80;;;3.00;;
2173;SDS011;1093;51.424;11.764;2023-07-29T04:42:54;4.00;;;3.00;;
2173;SDS011;1093;51.424;11.764;2023-07-29T04:45:23;3.43;;;3.13;;
2173;SDS011;1093;51.424;11.764;2023-07-29T04:47:57;3.37;;;2.80;;
2173;SDS011;1093;51.424;11.764;2023-07-29T04:50:25;3.53;;;3.23;;
2173;SDS011;1093;51.424;11.764;2023-07-29T04:52:53;5.67;;;3.63;;
2173;SDS011;1093;51.424;11.764;2023-07-29T04:55:21;4.47;;;3.00;;
2173;SDS011;1093;51.424;11.764;2023-07-29T04:57:48;4.80;;;3.23;;
2173;SDS011;1093;51.424;11.764;2023-07-29T05:00:15;2.80;;;2.60;;
2173;SDS011;1093;51.424;11.764;2023-07-29T05:02:45;2.53;;;2.33;;
2173;SDS011;1093;51.424;11.764;2023-07-29T05:05:12;2.90;;;2.70;;
2173;SDS011;1093;51.424;11.764;2023-07-29T05:07:44;2.90;;;2.70;;
2173;SDS011;1093;51.424;11.764;2023-07-29T05:10:11;4.17;;;3.30;;
2173;SDS011;1093;51.424;11.764;2023-07-29T05:12:38;3.70;;;3.20;;
2173;SDS011;1093;51.424;11.764;2023-07-29T05:15:08;3.50;;;3.30;;
2173;SDS011;1093;51.424;11.764;2023-07-29T05:17:37;3.37;;;2.93;;
2173;SDS011;1093;51.424;11.764;2023-07-29T05:20:08;3.20;;;2.90;;
2173;SDS011;1093;51.424;11.764;2023-07-29T05:22:37;2.67;;;2.47;;
2173;SDS011;1093;51.424;11.764;2023-07-29T05:25:06;3.60;;;2.67;;
2173;SDS011;1093;51.424;11.764;2023-07-29T05:27:34;4.00;;;2.93;;
2173;SDS011;1093;51.424;11.764;2023-07-29T05:30:03;2.83;;;2.60;;
2173;SDS011;1093;51.424;11.764;2023-07-29T05:32:32;3.43;;;2.70;;
2173;SDS011;1093;51.424;11.764;2023-07-29T05:35:00;2.53;;;2.33;;
2173;SDS011;1093;51.424;11.764;2023-07-29T05:37:31;6.03;;;3.00;;
2173;SDS011;1093;51.424;11.764;2023-07-29T05:39:58;2.70;;;2.50;;
2173;SDS011;1093;51.424;11.764;2023-07-29T05:42:25;3.93;;;2.20;;
2173;SDS011;1093;51.424;11.764;2023-07-29T05:44:52;2.53;;;2.03;;
2173;SDS011;1093;51.424;11.764;2023-07-29T05:47:20;3.77;;;2.90;;
2173;SDS011;1093;51.424;11.764;2023-07-29T05:49:46;3.53;;;2.33;;
2173;SDS011;1093;51.424;11.764;2023-07-29T05:52:17;4.50;;;3.00;;
2173;SDS011;1093;51.424;11.764;2023-07-29T05:54:46;2.33;;;2.20;;
2173;SDS011;1093;51.424;11.764;2023-07-29T05:57:14;2.20;;;2.00;;
2173;SDS011;1093;51.424;11.764;2023-07-29T05:59:43;2.60;;;2.40;;
2173;SDS011;1093;51.424;11.764;2023-07-29T06:02:15;2.30;;;2.17;;
2173;SDS011;1093;51.424;11.764;2023-07-29T06:04:43;3.07;;;2.13;;
2173;SDS011;1093;51.424;11.764;2023-07-29T06:07:11;2.70;;;2.50;;
2173;SDS011;1093;51.424;11.764;2023-07-29T06:09:39;3.17;;;2.10;;
2173;SDS011;1093;51.424;11.764;2023-07-29T06:12:10;3.00;;;2.37;;
2173;SDS011;1093;51.424;11.764;2023-07-29T06:14:42;2.37;;;2.17;;
2173;SDS011;1093;51.424;11.764;2023-07-29T06:17:09;2.70;;;2.07;;
2173;SDS011;1093;51.424;11.764;2023-07-29T06:19:37;2.80;;;2.60;;
2173;SDS011;1093;51.424;11.764;2023-07-29T06:22:04;2.30;;;2.10;;
2173;SDS011;1093;51.424;11.764;2023-07-29T06:24:36;3.23;;;2.40;;
2173;SDS011;1093;51.424;11.764;2023-07-29T06:27:06;2.13;;;1.93;;
2173;SDS011;1093;51.424;11.764;2023-07-29T06:29:36;2.13;;;2.03;;
2173;SDS011;1093;51.424;11.764;2023-07-29T06:32:04;5.30;;;2.67;;
2173;SDS011;1093;51.424;11.764;2023-07-29T06:34:32;2.83;;;2.27;;
2173;SDS011;1093;51.424;11.764;2023-07-29T06:36:59;2.70;;;2.50;;
2173;SDS011;1093;51.424;11.764;2023-07-29T06:39:40;3.90;;;2.47;;
2173;SDS011;1093;51.424;11.764;2023-07-29T06:42:14;4.73;;;2.53;;
2173;SDS011;1093;51.424;11.764;2023-07-29T06:44:46;6.40;;;2.63;;
2173;SDS011;1093;51.424;11.764;2023-07-29T06:47:15;3.57;;;2.10;;
2173;SDS011;1093;51.424;11.764;2023-07-29T06:49:42;2.50;;;2.30;;
2173;SDS011;1093;51.424;11.764;2023-07-29T06:52:09;3.67;;;2.63;;
2173;SDS011;1093;51.424;11.764;2023-07-29T06:54:38;11.00;;;3.23;;
2173;SDS011;1093;51.424;11.764;2023-07-29T06:57:06;3.80;;;2.40;;
2173;SDS011;1093;51.424;11.764;2023-07-29T06:59:35;4.43;;;2.67;;
2173;SDS011;1093;51.424;11.764;2023-07-29T07:02:06;2.80;;;2.47;;
2173;SDS011;1093;51.424;11.764;2023-07-29T07:04:33;3.50;;;2.40;;
2173;SDS011;1093;51.424;11.764;2023-07-29T07:07:01;2.83;;;2.63;;
2173;SDS011;1093;51.424;11.764;2023-07-29T07:09:28;2.90;;;2.60;;
2173;SDS011;1093;51.424;11.764;2023-07-29T07:11:55;2.93;;;2.67;;
2173;SDS011;1093;51.424;11.764;2023-07-29T07:14:24;4.73;;;2.43;;
2173;SDS011;1093;51.424;11.764;2023-07-29T07:16:51;2.20;;;2.10;;
2173;SDS011;1093;51.424;11.764;2023-07-29T07:19:27;4.03;;;2.83;;
2173;SDS011;1093;51.424;11.764;2023-07-29T07:21:54;3.37;;;2.27;;
2173;SDS011;1093;51.424;11.764;2023-07-29T07:24:23;3.40;;;2.27;;
2173;SDS011;1093;51.424;11.764;2023-07-29T07:26:49;2.50;;;2.30;;
2173;SDS011;1093;51.424;11.764;2023-07-29T07:29:16;2.83;;;2.63;;
2173;SDS011;1093;51.424;11.764;2023-07-29T07:31:48;2.63;;;2.43;;
2173;SDS011;1093;51.424;11.764;2023-07-29T07:34:17;4.27;;;3.00;;
2173;SDS011;1093;51.424;11.764;2023-07-29T07:36:51;2.77;;;2.37;;
2173;SDS011;1093;51.424;11.764;2023-07-29T07:39:21;4.10;;;2.90;;
2173;SDS011;1093;51.424;11.764;2023-07-29T07:41:49;6.50;;;2.47;;
2173;SDS011;1093;51.424;11.764;2023-07-29T07:44:17;3.50;;;2.13;;
2173;SDS011;1093;51.424;11.764;2023-07-29T07:46:48;2.53;;;2.37;;
2173;SDS011;1093;51.424;11.764;2023-07-29T07:49:16;4.23;;;2.30;;
2173;SDS011;1093;51.424;11.764;2023-07-29T07:51:48;2.53;;;2.17;;
2173;SDS011;1093;51.424;11.764;2023-07-29T07:54:20;11.53;;;2.50;;
2173;SDS011;1093;51.424;11.764;2023-07-29T07:56:46;2.47;;;2.27;;
2173;SDS011;1093;51.424;11.764;2023-07-29T07:59:14;2.07;;;1.97;;
2173;SDS011;1093;51.424;11.764;2023-07-29T08:01:44;3.03;;;2.83;;
2173;SDS011;1093;51.424;11.764;2023-07-29T08:04:16;2.20;;;2.10;;
2173;SDS011;1093;51.424;11.764;2023-07-29T08:06:43;2.17;;;2.07;;
2173;SDS011;1093;51.424;11.764;2023-07-29T08:09:11;4.40;;;1.80;;
2173;SDS011;1093;51.424;11.764;2023-07-29T08:11:40;2.17;;;1.97;;
2173;SDS011;1093;51.424;11.764;2023-07-29T08:14:10;2.43;;;2.23;;
2173;SDS011;1093;51.424;11.764;2023-07-29T08:16:40;3.33;;;1.87;;
2173;SDS011;1093;51.424;11.764;2023-07-29T08:19:08;4.77;;;2.70;;
2173;SDS011;1093;51.424;11.764;2023-07-29T08:21:35;2.57;;;2.10;;
2173;SDS011;1093;51.424;11.764;2023-07-29T08:24:03;3.70;;;2.20;;
2173;SDS011;1093;51.424;11.764;2023-07-29T08:26:33;2.20;;;2.00;;
2173;SDS011;1093;51.424;11.764;2023-07-29T08:29:00;2.50;;;2.00;;
2173;SDS011;1093;51.424;11.764;2023-07-29T08:31:27;2.63;;;2.03;;
2173;SDS011;1093;51.424;11.764;2023-07-29T08:33:58;1.73;;;1.63;;
2173;SDS011;1093;51.424;11.764;2023-07-29T08:36:26;3.50;;;2.27;;
2173;SDS011;1093;51.424;11.764;2023-07-29T08:38:57;1.83;;;1.73;;
2173;SDS011;1093;51.424;11.764;2023-07-29T08:41:28;2.47;;;2.27;;
2173;SDS011;1093;51.424;11.764;2023-07-29T08:44:01;3.10;;;2.20;;
2173;SDS011;1093;51.424;11.764;2023-07-29T08:46:38;2.33;;;1.93;;
2173;SDS011;1093;51.424;11.764;2023-07-29T08:49:06;2.90;;;1.40;;
2173;SDS011;1093;51.424;11.764;2023-07-29T08:51:34;2.60;;;1.53;;
2173;SDS011;1093;51.424;11.764;2023-07-29T08:54:02;1.63;;;1.53;;
2173;SDS011;1093;51.424;11.764;2023-07-29T08:56:30;1.90;;;1.80;;
2173;SDS011;1093;51.424;11.764;2023-07-29T08:58:58;1.70;;;1.60;;
2173;SDS011;1093;51.424;11.764;2023-07-29T09:01:31;2.63;;;1.77;;
2173;SDS011;1093;51.424;11.764;2023-07-29T09:03:58;3.13;;;1.97;;
2173;SDS011;1093;51.424;11.764;2023-07-29T09:06:28;1.57;;;1.47;;
2173;SDS011;1093;51.424;11.764;2023-07-29T09:08:58;1.50;;;1.40;;
2173;SDS011;1093;51.424;11.764;2023-07-29T09:11:25;1.90;;;1.80;;
2173;SDS011;1093;51.424;11.764;2023-07-29T09:14:02;1.37;;;1.27;;
2173;SDS011;1093;51.424;11.764;2023-07-29T09:16:31;1.60;;;1.50;;
2173;SDS011;1093;51.424;11.764;2023-07-29T09:19:00;1.47;;;1.37;;
2173;SDS011;1093;51.424;11.764;2023-07-29T09:21:28;2.70;;;1.63;;
2173;SDS011;1093;51.424;11.764;2023-07-29T09:23:56;2.10;;;1.20;;
2173;SDS011;1093;51.424;11.764;2023-07-29T09:26:24;1.70;;;1.60;;
2173;SDS011;1093;51.424;11.764;2023-07-29T09:28:55;3.73;;;1.80;;
2173;SDS011;1093;51.424;11.764;2023-07-29T09:31:28;1.50;;;1.40;;
2173;SDS011;1093;51.424;11.764;2023-07-29T09:33:57;2.57;;;1.67;;
2173;SDS011;1093;51.424;11.764;2023-07-29T09:36:26;2.20;;;2.00;;
2173;SDS011;1093;51.424;11.764;2023-07-29T09:38:56;2.80;;;1.63;;
2173;SDS011;1093;51.424;11.764;2023-07-29T09:41:26;1.80;;;1.70;;
2173;SDS011;1093;51.424;11.764;2023-07-29T09:43:59;1.40;;;1.30;;
2173;SDS011;1093;51.424;11.764;2023-07-29T09:46:33;2.67;;;2.47;;
2173;SDS011;1093;51.424;11.764;2023-07-29T09:49:02;6.23;;;5.33;;
2173;SDS011;1093;51.424;11.764;2023-07-29T09:51:50;3.00;;;2.70;;
2173;SDS011;1093;51.424;11.764;2023-07-29T09:54:20;2.07;;;1.97;;
2173;SDS011;1093;51.424;11.764;2023-07-29T09:56:47;1.93;;;1.73;;
2173;SDS011;1093;51.424;11.764;2023-07-29T09:59:18;1.50;;;1.40;;
2173;SDS011;1093;51.424;11.764;2023-07-29T10:01:49;3.13;;;1.50;;
2173;SDS011;1093;51.424;11.764;2023-07-29T10:04:18;1.77;;;1.60;;
2173;SDS011;1093;51.424;11.764;2023-07-29T10:06:48;2.67;;;1.80;;
2173;SDS011;1093;51.424;11.764;2023-07-29T10:09:16;2.70;;;1.80;;
2173;SDS011;1093;51.424;11.764;2023-07-29T10:11:52;2.20;;;2.00;;
2173;SDS011;1093;51.424;11.764;2023-07-29T10:14:21;2.47;;;1.80;;
2173;SDS011;1093;51.424;11.764;2023-07-29T10:19:36;2.03;;;1.80;;
2173;SDS011;1093;51.424;11.764;2023-07-29T10:22:10;2.20;;;2.00;;
2173;SDS011;1093;51.424;11.764;2023-07-29T10:24:39;2.23;;;1.80;;
2173;SDS011;1093;51.424;11.764;2023-07-29T10:27:09;2.00;;;1.80;;
2173;SDS011;1093;51.424;11.764;2023-07-29T10:29:41;2.00;;;1.87;;
2173;SDS011;1093;51.424;11.764;2023-07-29T10:32:11;2.30;;;2.03;;
2173;SDS011;1093;51.424;11.764;2023-07-29T10:34:39;1.80;;;1.70;;
2173;SDS011;1093;51.424;11.764;2023-07-29T10:37:07;2.40;;;2.20;;
2173;SDS011;1093;51.424;11.764;2023-07-29T10:39:38;2.30;;;2.10;;
2173;SDS011;1093;51.424;11.764;2023-07-29T10:42:13;2.07;;;1.87;;
2173;SDS011;1093;51.424;11.764;2023-07-29T10:44:46;2.27;;;2.07;;
2173;SDS011;1093;51.424;11.764;2023-07-29T10:47:18;2.47;;;2.27;;
2173;SDS011;1093;51.424;11.764;2023-07-29T10:49:53;2.30;;;2.10;;
2173;SDS011;1093;51.424;11.764;2023-07-29T10:52:32;2.23;;;2.03;;
2173;SDS011;1093;51.424;11.764;2023-07-29T10:55:23;2.53;;;2.33;;
2173;SDS011;1093;51.424;11.764;2023-07-29T10:58:04;2.27;;;2.07;;
2173;SDS011;1093;51.424;11.764;2023-07-29T11:00:38;4.00;;;1.70;;
2173;SDS011;1093;51.424;11.764;2023-07-29T11:03:11;3.10;;;1.93;;
2173;SDS011;1093;51.424;11.764;2023-07-29T11:05:42;3.73;;;2.33;;
2173;SDS011;1093;51.424;11.764;2023-07-29T11:08:16;3.10;;;1.93;;
2173;SDS011;1093;51.424;11.764;2023-07-29T11:11:01;2.30;;;2.07;;
2173;SDS011;1093;51.424;11.764;2023-07-29T11:13:45;2.57;;;2.37;;
2173;SDS011;1093;51.424;11.764;2023-07-29T11:16:12;2.53;;;2.33;;
2173;SDS011;1093;51.424;11.764;2023-07-29T11:18:58;2.70;;;2.23;;
2173;SDS011;1093;51.424;11.764;2023-07-29T11:21:29;2.30;;;2.10;;
2173;SDS011;1093;51.424;11.764;2023-07-29T11:23:57;3.30;;;2.40;;
2173;SDS011;1093;51.424;11.764;2023-07-29T11:26:24;2.00;;;1.80;;
2173;SDS011;1093;51.424;11.764;2023-07-29T11:28:51;2.00;;;1.80;;
2173;SDS011;1093;51.424;11.764;2023-07-29T11:31:19;2.70;;;2.50;;
2173;SDS011;1093;51.424;11.764;2023-07-29T11:33:55;2.70;;;2.07;;
2173;SDS011;1093;51.424;11.764;2023-07-29T11:36:26;2.70;;;2.50;;
2173;SDS011;1093;51.424;11.764;2023-07-29T11:39:08;5.47;;;2.20;;
2173;SDS011;1093;51.424;11.764;2023-07-29T11:41:47;2.20;;;2.00;;
2173;SDS011;1093;51.424;11.764;2023-07-29T11:44:16;2.30;;;2.10;;
2173;SDS011;1093;51.424;11.764;2023-07-29T11:46:45;3.70;;;1.90;;
2173;SDS011;1093;51.424;11.764;2023-07-29T11:49:20;3.00;;;2.70;;
2173;SDS011;1093;51.424;11.764;2023-07-29T11:51:53;2.47;;;2.20;;
2173;SDS011;1093;51.424;11.764;2023-07-29T11:54:21;2.20;;;2.00;;
2173;SDS011;1093;51.424;11.764;2023-07-29T11:56:50;2.10;;;2.00;;
2173;SDS011;1093;51.424;11.764;2023-07-29T11:59:25;2.63;;;2.43;;
2173;SDS011;1093;51.424;11.764;2023-07-29T12:01:56;2.37;;;2.17;;
2173;SDS011;1093;51.424;11.764;2023-07-29T12:04:27;2.43;;;2.23;;
2173;SDS011;1093;51.424;11.764;2023-07-29T12:06:59;2.30;;;2.10;;
2173;SDS011;1093;51.424;11.764;2023-07-29T12:09:27;2.10;;;2.00;;
2173;SDS011;1093;51.424;11.764;2023-07-29T12:11:56;2.17;;;2.07;;
2173;SDS011;1093;51.424;11.764;2023-07-29T12:14:26;2.60;;;2.27;;
2173;SDS011;1093;51.424;11.764;2023-07-29T12:16:59;4.53;;;2.10;;
2173;SDS011;1093;51.424;11.764;2023-07-29T12:19:31;5.33;;;2.17;;
2173;SDS011;1093;51.424;11.764;2023-07-29T12:22:04;3.03;;;2.57;;
2173;SDS011;1093;51.424;11.764;2023-07-29T12:24:40;2.20;;;2.03;;
2173;SDS011;1093;51.424;11.764;2023-07-29T12:30:29;2.33;;;2.13;;
2173;SDS011;1093;51.424;11.764;2023-07-29T12:32:56;1.90;;;1.80;;
2173;SDS011;1093;51.424;11.764;2023-07-29T12:38:15;4.83;;;2.40;;
2173;SDS011;1093;51.424;11.764;2023-07-29T12:40:53;2.93;;;2.60;;
2173;SDS011;1093;51.424;11.764;2023-07-29T12:43:21;2.50;;;2.30;;
2173;SDS011;1093;51.424;11.764;2023-07-29T12:46:01;2.40;;;2.20;;
2173;SDS011;1093;51.424;11.764;2023-07-29T12:48:44;2.30;;;2.10;;
2173;SDS011;1093;51.424;11.764;2023-07-29T12:51:31;2.60;;;1.83;;
2173;SDS011;1093;51.424;11.764;2023-07-29T12:54:16;2.73;;;2.40;;
2173;SDS011;1093;51.424;11.764;2023-07-29T12:56:43;4.30;;;2.20;;
2173;SDS011;1093;51.424;11.764;2023-07-29T12:59:13;2.47;;;2.23;;
2173;SDS011;1093;51.424;11.764;2023-07-29T13:01:49;4.27;;;2.23;;
2173;SDS011;1093;51.424;11.764;2023-07-29T13:04:16;1.90;;;1.80;;
2173;SDS011;1093;51.424;11.764;2023-07-29T13:06:45;2.60;;;2.40;;
2173;SDS011;1093;51.424;11.764;2023-07-29T13:09:12;2.37;;;1.83;;
2173;SDS011;1093;51.424;11.764;2023-07-29T13:11:45;2.17;;;1.97;;
2173;SDS011;1093;51.424;11.764;2023-07-29T13:14:13;2.00;;;1.80;;
2173;SDS011;1093;51.424;11.764;2023-07-29T13:16:41;2.70;;;2.30;;
2173;SDS011;1093;51.424;11.764;2023-07-29T13:19:11;2.90;;;2.00;;
2173;SDS011;1093;51.424;11.764;2023-07-29T13:21:42;2.10;;;2.00;;
2173;SDS011;1093;51.424;11.764;2023-07-29T13:34:35;2.53;;;2.33;;
2173;SDS011;1093;51.424;11.764;2023-07-29T13:37:05;3.83;;;2.10;;
2173;SDS011;1093;51.424;11.764;2023-07-29T13:39:32;3.87;;;2.10;;
2173;SDS011;1093;51.424;11.764;2023-07-29T13:41:59;3.00;;;2.43;;
2173;SDS011;1093;51.424;11.764;2023-07-29T13:44:26;3.73;;;1.83;;
2173;SDS011;1093;51.424;11.764;2023-07-29T13:46:53;2.50;;;2.30;;
2173;SDS011;1093;51.424;11.764;2023-07-29T13:49:20;2.20;;;2.00;;
2173;SDS011;1093;51.424;11.764;2023-07-29T13:51:48;3.70;;;2.30;;
2173;SDS011;1093;51.424;11.764;2023-07-29T13:54:16;4.53;;;2.37;;
2173;SDS011;1093;51.424;11.764;2023-07-29T13:56:43;3.70;;;2.30;;
2173;SDS011;1093;51.424;11.764;2023-07-29T13:59:10;10.50;;;3.07;;
2173;SDS011;1093;51.424;11.764;2023-07-29T14:01:39;7.80;;;2.33;;
2173;SDS011;1093;51.424;11.764;2023-07-29T14:04:06;3.07;;;2.80;;
2173;SDS011;1093;51.424;11.764;2023-07-29T14:06:33;5.37;;;2.30;;
2173;SDS011;1093;51.424;11.764;2023-07-29T14:09:01;3.20;;;2.90;;
2173;SDS011;1093;51.424;11.764;2023-07-29T14:11:28;9.27;;;3.40;;
2173;SDS011;1093;51.424;11.764;2023-07-29T14:13:55;4.47;;;2.70;;
2173;SDS011;1093;51.424;11.764;2023-07-29T14:16:22;6.03;;;2.83;;
2173;SDS011;1093;51.424;11.764;2023-07-29T14:18:49;6.10;;;3.53;;
2173;SDS011;1093;51.424;11.764;2023-07-29T14:21:16;19.97;;;5.57;;
2173;SDS011;1093;51.424;11.764;2023-07-29T14:23:43;9.93;;;4.97;;
2173;SDS011;1093;51.424;11.764;2023-07-29T14:26:11;12.33;;;4.80;;
2173;SDS011;1093;51.424;11.764;2023-07-29T14:28:38;12.20;;;4.70;;
2173;SDS011;1093;51.424;11.764;2023-07-29T14:31:05;9.57;;;4.43;;
2173;SDS011;1093;51.424;11.764;2023-07-29T14:33:32;7.50;;;3.57;;
2173;SDS011;1093;51.424;11.764;2023-07-29T14:35:59;6.57;;;4.23;;
2173;SDS011;1093;51.424;11.764;2023-07-29T14:38:26;17.03;;;4.00;;
2173;SDS011;1093;51.424;11.764;2023-07-29T14:40:52;33.87;;;4.60;;
2173;SDS011;1093;51.424;11.764;2023-07-29T14:43:23;4.27;;;2.90;;
2173;SDS011;1093;51.424;11.764;2023-07-29T14:45:49;3.87;;;3.27;;
2173;SDS011;1093;51.424;11.764;2023-07-29T14:48:16;3.43;;;2.83;;
2173;SDS011;1093;51.424;11.764;2023-07-29T14:50:43;3.30;;;2.63;;
2173;SDS011;1093;51.424;11.764;2023-07-29T14:53:16;5.90;;;3.30;;
2173;SDS011;1093;51.424;11.764;2023-07-29T14:56:07;5.40;;;3.30;;
2173;SDS011;1093;51.424;11.764;2023-07-29T14:58:58;4.20;;;3.10;;
2173;SDS011;1093;51.424;11.764;2023-07-29T15:01:27;3.90;;;3.03;;
2173;SDS011;1093;51.424;11.764;2023-07-29T15:04:01;5.37;;;3.53;;
2173;SDS011;1093;51.424;11.764;2023-07-29T15:06:46;6.23;;;3.60;;
2173;SDS011;1093;51.424;11.764;2023-07-29T15:09:22;4.63;;;3.67;;
2173;SDS011;1093;51.424;11.764;2023-07-29T15:15:27;3.97;;;3.57;;
2173;SDS011;1093;51.424;11.764;2023-07-29T15:17:54;6.83;;;3.47;;
2173;SDS011;1093;51.424;11.764;2023-07-29T15:20:22;6.93;;;3.30;;
2173;SDS011;1093;51.424;11.764;2023-07-29T15:22:48;4.80;;;3.37;;
2173;SDS011;1093;51.424;11.764;2023-07-29T15:25:15;5.47;;;3.53;;
2173;SDS011;1093;51.424;11.764;2023-07-29T15:28:06;3.57;;;3.27;;
2173;SDS011;1093;51.424;11.764;2023-07-29T15:48:23;6.90;;;3.30;;
2173;SDS011;1093;51.424;11.764;2023-07-29T15:50:50;4.07;;;3.50;;
2173;SDS011;1093;51.424;11.764;2023-07-29T16:06:22;4.57;;;4.17;;
2173;SDS011;1093;51.424;11.764;2023-07-29T16:08:50;6.43;;;3.50;;
2173;SDS011;1093;51.424;11.764;2023-07-29T16:11:21;5.07;;;4.67;;